Time;durP1;ratioP1;P1;durP2;ratioP2;P2;SDS_P1;SDS_P2;PMS_P1;PMS_P2;Temp;Humidity;BMP_temperature;BMP_pressure;BME280_temperature;BME280_humidity;BME280_pressure;Samples;Min_cycle;Max_cycle;Signal;HPM_P1;HPM_P2
2021/10/14 00:01:41;;;;;;;2.30;1.50;;;15.00;71.90;;;;;;4883536;29;20041;-92
2021/10/14 00:04:10;;;;;;;2.67;1.52;;;15.00;71.90;;;;;;4868920;29;20087;-92
2021/10/14 00:06:36;;;;;;;1.70;1.35;;;15.00;71.90;;;;;;4883963;29;20040;-92
2021/10/14 00:09:05;;;;;;;1.90;1.60;;;15.00;71.90;;;;;;4883755;29;20035;-93
2021/10/14 00:11:31;;;;;;;1.95;1.70;;;15.00;72.00;;;;;;4882829;29;20033;-92
2021/10/14 00:13:59;;;;;;;2.65;1.73;;;15.00;72.00;;;;;;4884194;29;20021;-93
2021/10/14 00:16:25;;;;;;;2.40;1.65;;;15.00;72.00;;;;;;4899749;29;20085;-93
2021/10/14 00:18:52;;;;;;;2.05;1.70;;;15.00;72.00;;;;;;4883746;29;20081;-91
2021/10/14 00:21:20;;;;;;;1.95;1.50;;;15.00;72.00;;;;;;4869407;29;20033;-92
2021/10/14 00:23:53;;;;;;;2.92;1.73;;;15.00;72.00;;;;;;4892169;29;20033;-92
2021/10/14 00:26:19;;;;;;;2.97;1.95;;;15.00;72.10;;;;;;4889930;29;20044;-93
2021/10/14 00:28:45;;;;;;;2.45;1.85;;;15.00;72.00;;;;;;4855690;29;20394;-91
2021/10/14 00:31:13;;;;;;;3.30;1.80;;;15.00;72.00;;;;;;4899994;29;20043;-92
2021/10/14 00:33:41;;;;;;;2.05;1.60;;;15.00;72.00;;;;;;4884990;29;20441;-92
2021/10/14 00:36:09;;;;;;;2.58;1.77;;;14.90;72.00;;;;;;4899553;29;20035;-93
2021/10/14 00:38:47;;;;;;;2.30;1.75;;;15.00;72.10;;;;;;4900012;29;20060;-92
2021/10/14 00:41:18;;;;;;;1.77;1.60;;;15.00;72.10;;;;;;4899367;29;20037;-92
2021/10/14 00:43:47;;;;;;;2.50;1.80;;;14.90;72.00;;;;;;4883736;29;20029;-92
2021/10/14 00:46:17;;;;;;;2.05;1.70;;;14.90;72.00;;;;;;4868517;29;20032;-92
2021/10/14 00:48:43;;;;;;;1.92;1.63;;;14.90;72.10;;;;;;4868820;29;20037;-93
2021/10/14 00:51:13;;;;;;;2.85;1.80;;;14.90;72.10;;;;;;4869269;29;20546;-93
2021/10/14 00:53:39;;;;;;;2.83;2.08;;;14.90;72.10;;;;;;4884073;29;20032;-93
2021/10/14 00:56:13;;;;;;;3.70;2.20;;;14.90;72.10;;;;;;4884082;29;20033;-92
2021/10/14 00:58:44;;;;;;;2.63;2.00;;;14.90;72.10;;;;;;4883599;29;20036;-91
2021/10/14 01:01:10;;;;;;;2.78;2.03;;;14.90;72.10;;;;;;4882803;29;20029;-92
2021/10/14 01:03:39;;;;;;;3.17;1.95;;;14.90;72.10;;;;;;4883139;29;20025;-91
2021/10/14 01:06:05;;;;;;;2.65;1.90;;;14.90;72.10;;;;;;4883601;29;20139;-90
2021/10/14 01:08:31;;;;;;;2.20;1.80;;;14.90;72.10;;;;;;4867861;29;20021;-91
2021/10/14 01:11:00;;;;;;;2.90;2.03;;;14.90;72.10;;;;;;4900097;29;20029;-91
2021/10/14 01:13:26;;;;;;;3.50;2.10;;;14.90;72.10;;;;;;4867822;29;20053;-90
2021/10/14 01:15:56;;;;;;;2.55;1.92;;;14.90;72.10;;;;;;4915969;29;20371;-90
2021/10/14 01:18:25;;;;;;;3.33;2.10;;;14.90;72.10;;;;;;4900358;29;20072;-92
2021/10/14 01:20:57;;;;;;;2.75;2.00;;;14.90;72.20;;;;;;4884477;29;20029;-90
2021/10/14 01:23:25;;;;;;;3.03;2.20;;;14.90;72.10;;;;;;4884496;29;20040;-90
2021/10/14 01:25:56;;;;;;;3.92;2.25;;;14.90;72.10;;;;;;4867442;29;20269;-91
2021/10/14 01:28:29;;;;;;;4.78;2.50;;;14.90;72.20;;;;;;4883376;29;20033;-91
2021/10/14 01:30:57;;;;;;;3.75;2.50;;;14.90;72.10;;;;;;4882292;29;20509;-91
2021/10/14 01:33:33;;;;;;;3.15;2.45;;;14.90;72.20;;;;;;4867518;29;20025;-90
2021/10/14 01:35:59;;;;;;;3.20;2.50;;;14.90;72.20;;;;;;4867320;29;20028;-92
2021/10/14 01:38:25;;;;;;;3.65;2.30;;;14.90;72.20;;;;;;4867191;29;20021;-91
2021/10/14 01:40:54;;;;;;;3.42;2.53;;;14.90;72.20;;;;;;4867100;29;20044;-92
2021/10/14 01:43:20;;;;;;;3.83;2.67;;;14.90;72.20;;;;;;4867413;29;20033;-91
2021/10/14 01:45:46;;;;;;;3.47;2.40;;;14.90;72.20;;;;;;4882556;29;20029;-91
2021/10/14 01:48:12;;;;;;;3.42;2.67;;;14.90;72.20;;;;;;4868422;29;20533;-92
2021/10/14 01:50:40;;;;;;;3.90;3.03;;;14.90;72.20;;;;;;4867661;29;20029;-90
2021/10/14 01:53:08;;;;;;;3.55;2.53;;;14.80;72.20;;;;;;4882505;29;20048;-90
2021/10/14 01:55:37;;;;;;;3.92;2.88;;;14.90;72.20;;;;;;4883635;29;20037;-89
2021/10/14 01:58:06;;;;;;;3.42;2.60;;;14.90;72.20;;;;;;4867246;29;20044;-93
2021/10/14 02:00:40;;;;;;;4.50;2.88;;;14.90;72.30;;;;;;4882167;29;20029;-92
2021/10/14 02:03:07;;;;;;;4.07;2.85;;;14.90;72.30;;;;;;4867230;29;20048;-91
2021/10/14 02:05:36;;;;;;;4.47;2.92;;;14.90;72.30;;;;;;4867618;29;20025;-91
2021/10/14 02:08:22;;;;;;;4.88;2.97;;;14.90;72.30;;;;;;4897467;29;20065;-92
2021/10/14 02:10:48;;;;;;;3.85;2.88;;;14.90;72.40;;;;;;4897489;29;20065;-91
2021/10/14 02:13:14;;;;;;;4.43;3.08;;;14.90;72.20;;;;;;4913029;29;20028;-92
2021/10/14 02:15:46;;;;;;;5.03;3.42;;;14.90;72.30;;;;;;4881571;29;20088;-92
2021/10/14 02:18:12;;;;;;;4.95;3.20;;;14.80;72.20;;;;;;4881536;29;20068;-92
2021/10/14 02:20:43;;;;;;;4.55;3.28;;;14.80;72.30;;;;;;4881818;29;20040;-92
2021/10/14 02:23:09;;;;;;;4.78;3.47;;;14.90;72.40;;;;;;4851148;29;20390;-92
2021/10/14 02:25:35;;;;;;;5.43;3.58;;;14.80;72.30;;;;;;4897190;29;20025;-92
2021/10/14 02:28:01;;;;;;;6.07;3.55;;;14.80;72.30;;;;;;4865337;29;20041;-92
2021/10/14 02:30:27;;;;;;;4.75;3.10;;;14.80;72.30;;;;;;4881077;29;20032;-92
2021/10/14 02:32:56;;;;;;;5.90;3.40;;;14.80;72.30;;;;;;4866222;29;20462;-92
2021/10/14 02:35:22;;;;;;;4.57;3.25;;;14.80;72.30;;;;;;4881086;29;20101;-92
2021/10/14 02:37:48;;;;;;;4.75;3.33;;;14.80;72.30;;;;;;4865851;29;20037;-92
2021/10/14 02:40:14;;;;;;;5.15;3.50;;;14.80;72.30;;;;;;4867060;29;20047;-92
2021/10/14 02:42:45;;;;;;;5.10;3.40;;;14.80;72.30;;;;;;4866887;29;20021;-92
2021/10/14 02:45:19;;;;;;;5.57;3.85;;;14.80;72.40;;;;;;4897468;29;20029;-91
2021/10/14 02:47:47;;;;;;;5.47;3.45;;;14.80;72.40;;;;;;4898183;29;20045;-93
2021/10/14 02:50:17;;;;;;;5.05;3.65;;;14.90;72.40;;;;;;4866447;29;20032;-92
2021/10/14 02:52:43;;;;;;;6.13;4.22;;;14.80;72.30;;;;;;4866704;29;20100;-92
2021/10/14 02:55:09;;;;;;;6.25;4.00;;;14.80;72.40;;;;;;4850598;29;20439;-92
2021/10/14 02:57:42;;;;;;;5.45;3.67;;;14.90;72.40;;;;;;4866976;29;20041;-91
2021/10/14 03:00:09;;;;;;;5.88;3.72;;;14.90;72.40;;;;;;4881999;29;20143;-92
2021/10/14 03:02:40;;;;;;;5.05;3.65;;;14.80;72.40;;;;;;4865796;29;20029;-91
2021/10/14 03:05:06;;;;;;;5.30;3.90;;;14.90;72.50;;;;;;4880392;29;20485;-91
2021/10/14 03:07:50;;;;;;;5.82;3.83;;;14.80;72.40;;;;;;4865198;29;20501;-93
2021/10/14 03:10:19;;;;;;;6.60;4.33;;;14.90;72.50;;;;;;4882261;29;20033;-92
2021/10/14 03:12:45;;;;;;;5.82;3.88;;;14.80;72.40;;;;;;4881645;29;20029;-92
2021/10/14 03:15:13;;;;;;;6.57;4.30;;;14.80;72.40;;;;;;4881964;29;20077;-92
2021/10/14 03:17:39;;;;;;;6.50;4.32;;;14.80;72.40;;;;;;4885876;29;20037;-92
2021/10/14 03:20:08;;;;;;;6.45;4.45;;;14.90;72.50;;;;;;4870017;29;20443;-91
2021/10/14 03:22:34;;;;;;;6.05;4.30;;;14.90;72.50;;;;;;4869367;29;20035;-92
2021/10/14 03:25:00;;;;;;;6.82;4.32;;;14.90;72.50;;;;;;4868995;29;20115;-90
2021/10/14 03:27:30;;;;;;;6.10;4.30;;;14.90;72.50;;;;;;4869214;29;20068;-92
2021/10/14 03:29:56;;;;;;;6.13;4.40;;;14.90;72.50;;;;;;4886113;29;20033;-91
2021/10/14 03:32:24;;;;;;;6.22;4.18;;;14.90;72.50;;;;;;4873828;29;20116;-92
2021/10/14 03:34:50;;;;;;;6.15;4.55;;;14.90;72.50;;;;;;4889161;29;20461;-93
2021/10/14 03:37:20;;;;;;;6.60;4.60;;;14.80;72.40;;;;;;4870886;29;20035;-92
2021/10/14 03:39:46;;;;;;;5.90;3.92;;;14.90;72.50;;;;;;4885002;29;20490;-92
2021/10/14 03:42:13;;;;;;;6.03;4.07;;;14.90;72.50;;;;;;4868124;29;20028;-92
2021/10/14 03:44:45;;;;;;;6.55;4.53;;;14.90;72.50;;;;;;4883839;29;20068;-92
2021/10/14 03:47:13;;;;;;;7.10;4.70;;;14.90;72.50;;;;;;4883754;29;20075;-91
2021/10/14 03:49:44;;;;;;;6.63;4.82;;;14.80;72.40;;;;;;4872259;29;20028;-91
2021/10/14 03:52:13;;;;;;;6.68;4.80;;;14.90;72.50;;;;;;4889284;29;20039;-93
2021/10/14 03:54:41;;;;;;;6.93;4.65;;;14.90;72.50;;;;;;4872565;29;20130;-93
2021/10/14 03:57:10;;;;;;;7.05;4.90;;;14.90;72.50;;;;;;4889158;29;20033;-93
2021/10/14 03:59:38;;;;;;;6.63;4.78;;;14.80;72.40;;;;;;4888002;29;20586;-92
2021/10/14 04:02:09;;;;;;;7.28;4.82;;;14.90;72.50;;;;;;4887518;29;20033;-91
2021/10/14 04:04:37;;;;;;;7.40;4.72;;;14.90;72.50;;;;;;4887241;29;20035;-92
2021/10/14 04:07:08;;;;;;;6.78;4.75;;;14.90;72.50;;;;;;4871451;29;20033;-93
2021/10/14 04:09:34;;;;;;;6.97;5.40;;;14.90;72.60;;;;;;4887333;29;20052;-93
2021/10/14 04:12:00;;;;;;;6.65;4.93;;;14.90;72.50;;;;;;4871183;29;20056;-92
2021/10/14 04:14:26;;;;;;;7.25;5.05;;;14.90;72.50;;;;;;4887646;29;20068;-91
2021/10/14 04:16:52;;;;;;;7.28;4.95;;;14.90;72.50;;;;;;4888522;29;20056;-92
2021/10/14 04:19:20;;;;;;;7.35;4.93;;;14.90;72.50;;;;;;4873305;29;20116;-92
2021/10/14 04:21:49;;;;;;;7.38;5.50;;;14.90;72.50;;;;;;4886805;29;20075;-91
2021/10/14 04:24:16;;;;;;;7.70;5.15;;;14.90;72.50;;;;;;4887299;29;20028;-91
2021/10/14 04:26:42;;;;;;;7.03;5.10;;;14.90;72.50;;;;;;4887237;29;20060;-92
2021/10/14 04:29:10;;;;;;;6.32;4.85;;;14.90;72.50;;;;;;4871167;29;20029;-92
2021/10/14 04:31:38;;;;;;;7.50;5.38;;;14.90;72.50;;;;;;4888133;29;20032;-89
2021/10/14 04:34:07;;;;;;;7.25;5.50;;;14.90;72.60;;;;;;4871734;29;20024;-91
2021/10/14 04:36:39;;;;;;;7.72;5.50;;;14.90;72.60;;;;;;4887854;29;20032;-91
2021/10/14 04:39:07;;;;;;;6.65;5.03;;;14.90;72.60;;;;;;4887683;29;20024;-91
2021/10/14 04:41:36;;;;;;;6.63;4.97;;;14.90;72.50;;;;;;4872879;29;20064;-90
2021/10/14 04:44:03;;;;;;;6.88;4.97;;;14.90;72.50;;;;;;4871539;29;20084;-88
2021/10/14 04:46:28;;;;;;;6.63;5.30;;;14.90;72.60;;;;;;4885869;29;20092;-86
2021/10/14 04:48:54;;;;;;;6.97;5.13;;;14.90;72.50;;;;;;4886119;29;20032;-86
2021/10/14 04:51:20;;;;;;;7.13;5.28;;;14.90;72.50;;;;;;4870584;29;20033;-86
2021/10/14 04:53:46;;;;;;;7.03;5.45;;;14.90;72.50;;;;;;4885958;29;20041;-85
2021/10/14 04:56:12;;;;;;;7.47;5.63;;;14.90;72.50;;;;;;4870853;29;20438;-84
2021/10/14 04:58:37;;;;;;;6.45;5.30;;;14.90;72.60;;;;;;4902269;29;20087;-87
2021/10/14 05:01:03;;;;;;;7.13;5.20;;;14.90;72.60;;;;;;4884597;29;20080;-84
2021/10/14 05:03:29;;;;;;;7.03;5.53;;;14.90;72.60;;;;;;4886240;29;20073;-85
2021/10/14 05:05:55;;;;;;;8.23;6.03;;;14.90;72.60;;;;;;4900775;29;20048;-85
2021/10/14 05:08:21;;;;;;;7.28;5.53;;;14.90;72.60;;;;;;4869744;29;20025;-85
2021/10/14 05:10:47;;;;;;;6.60;5.20;;;14.90;72.60;;;;;;4885795;29;20028;-88
2021/10/14 05:13:14;;;;;;;7.13;5.30;;;14.90;72.60;;;;;;4885348;29;20036;-87
2021/10/14 05:15:40;;;;;;;7.35;5.32;;;14.90;72.60;;;;;;4884992;29;20130;-87
2021/10/14 05:18:07;;;;;;;6.38;5.18;;;14.90;72.60;;;;;;4885262;29;20123;-86
2021/10/14 05:20:36;;;;;;;7.68;5.95;;;14.90;72.60;;;;;;4886048;29;20049;-88
2021/10/14 05:23:01;;;;;;;7.47;5.93;;;14.90;72.60;;;;;;4870408;29;20055;-86
2021/10/14 05:25:27;;;;;;;7.13;5.65;;;14.90;72.60;;;;;;4885669;29;20029;-88
2021/10/14 05:27:53;;;;;;;7.20;5.75;;;14.90;72.60;;;;;;4885221;29;20131;-82
2021/10/14 05:30:22;;;;;;;7.80;6.07;;;14.90;72.60;;;;;;4886076;29;20067;-90
2021/10/14 05:32:48;;;;;;;7.68;5.90;;;14.90;72.60;;;;;;4885201;29;20033;-91
2021/10/14 05:35:16;;;;;;;7.07;5.60;;;14.90;73.20;;;;;;4870312;29;20036;-83
2021/10/14 05:37:43;;;;;;;6.97;5.60;;;14.90;72.60;;;;;;4884631;29;20133;-92
2021/10/14 05:40:09;;;;;;;6.93;5.57;;;14.90;72.60;;;;;;4901114;29;20031;-87
2021/10/14 05:42:35;;;;;;;6.60;5.47;;;14.90;72.60;;;;;;4884879;29;20128;-87
2021/10/14 05:45:00;;;;;;;7.75;5.68;;;14.90;72.60;;;;;;4885233;29;20071;-87
2021/10/14 05:47:26;;;;;;;7.40;5.32;;;14.90;72.60;;;;;;4884724;29;20061;-85
2021/10/14 05:49:52;;;;;;;7.10;5.53;;;15.00;72.70;;;;;;4885284;29;20040;-85
2021/10/14 05:52:20;;;;;;;7.38;5.75;;;14.90;72.60;;;;;;4901569;29;20028;-86
2021/10/14 05:54:46;;;;;;;7.32;5.80;;;14.90;72.60;;;;;;4884551;29;20029;-86
2021/10/14 05:57:13;;;;;;;6.95;5.10;;;15.00;72.70;;;;;;4885562;29;20046;-87
2021/10/14 05:59:41;;;;;;;7.55;5.57;;;14.90;72.60;;;;;;4885851;29;20047;-87
2021/10/14 06:02:09;;;;;;;6.63;5.25;;;14.90;72.60;;;;;;4884854;29;20036;-87
2021/10/14 06:04:37;;;;;;;7.72;5.72;;;15.00;72.70;;;;;;4869147;29;20057;-87
2021/10/14 06:07:06;;;;;;;6.95;5.40;;;14.90;72.60;;;;;;4885211;29;20041;-87
2021/10/14 06:09:32;;;;;;;8.10;5.70;;;14.90;72.60;;;;;;4901538;29;20037;-88
2021/10/14 06:11:58;;;;;;;7.00;5.32;;;15.00;72.70;;;;;;4900835;29;20047;-88
2021/10/14 06:14:24;;;;;;;7.90;6.00;;;14.90;72.60;;;;;;4868830;29;20477;-88
2021/10/14 06:16:50;;;;;;;7.43;5.65;;;15.00;72.70;;;;;;4883777;29;20116;-88
2021/10/14 06:19:21;;;;;;;8.00;5.88;;;15.00;72.70;;;;;;4884455;29;20099;-85
2021/10/14 06:21:47;;;;;;;7.80;5.72;;;14.90;72.60;;;;;;4884412;29;20032;-83
2021/10/14 06:24:14;;;;;;;6.82;5.43;;;15.00;72.70;;;;;;4900912;29;20029;-85
2021/10/14 06:26:40;;;;;;;7.32;5.63;;;15.00;72.70;;;;;;4900966;29;20108;-86
2021/10/14 06:29:05;;;;;;;7.20;5.75;;;15.00;72.70;;;;;;4900878;29;20063;-84
2021/10/14 06:31:31;;;;;;;7.15;5.97;;;15.00;72.70;;;;;;4883694;29;20039;-85
2021/10/14 06:33:57;;;;;;;6.47;5.18;;;14.90;72.70;;;;;;4883652;29;20482;-85
2021/10/14 06:36:24;;;;;;;7.32;5.53;;;15.00;72.80;;;;;;4883778;29;20436;-84
2021/10/14 06:38:49;;;;;;;6.35;5.13;;;14.90;72.70;;;;;;4883834;29;20071;-85
2021/10/14 06:41:15;;;;;;;7.35;5.70;;;14.90;72.70;;;;;;4884245;29;20029;-84
2021/10/14 06:43:42;;;;;;;7.40;5.80;;;15.00;72.80;;;;;;4868256;29;20029;-85
2021/10/14 06:46:08;;;;;;;8.45;5.88;;;15.00;72.80;;;;;;4900532;29;20021;-83
2021/10/14 06:48:34;;;;;;;7.75;5.63;;;15.00;72.80;;;;;;4899717;29;20421;-83
2021/10/14 06:51:00;;;;;;;7.30;5.63;;;15.00;72.80;;;;;;4883478;29;20028;-83
2021/10/14 06:53:26;;;;;;;7.90;6.05;;;15.00;72.70;;;;;;4867909;29;20056;-83
2021/10/14 06:55:54;;;;;;;7.18;5.75;;;15.00;72.80;;;;;;4899460;29;20033;-83
2021/10/14 06:58:19;;;;;;;7.38;5.65;;;15.00;72.70;;;;;;4883222;29;20028;-84
2021/10/14 07:00:45;;;;;;;7.20;6.18;;;15.00;72.80;;;;;;4868226;29;20386;-85
2021/10/14 07:03:11;;;;;;;6.55;5.13;;;15.00;72.80;;;;;;4883351;29;20020;-83
2021/10/14 07:05:37;;;;;;;8.20;5.93;;;15.00;72.80;;;;;;4868485;29;20047;-84
2021/10/14 07:08:02;;;;;;;7.38;5.38;;;15.00;72.80;;;;;;4867552;29;20040;-84
2021/10/14 07:10:29;;;;;;;8.05;6.47;;;15.00;72.80;;;;;;4867922;29;20036;-84
2021/10/14 07:13:04;;;;;;;7.45;5.53;;;15.00;72.80;;;;;;4867938;29;20033;-83
2021/10/14 07:15:30;;;;;;;7.82;6.00;;;15.00;72.80;;;;;;4900115;29;20037;-84
2021/10/14 07:17:59;;;;;;;7.78;5.88;;;15.00;72.80;;;;;;4899035;29;20039;-84
2021/10/14 07:20:24;;;;;;;8.23;6.18;;;15.00;72.80;;;;;;4883740;29;20047;-83
2021/10/14 07:22:50;;;;;;;8.60;6.47;;;15.00;72.80;;;;;;4883056;29;20363;-83
2021/10/14 07:25:16;;;;;;;7.05;5.43;;;15.00;72.80;;;;;;4882532;29;20033;-85
2021/10/14 07:27:42;;;;;;;7.60;5.90;;;15.00;72.80;;;;;;4883259;29;20044;-84
2021/10/14 07:30:08;;;;;;;8.13;6.15;;;15.00;72.80;;;;;;4900090;29;20069;-83
2021/10/14 07:32:35;;;;;;;7.47;5.82;;;15.00;72.80;;;;;;4867317;29;20028;-83
2021/10/14 07:35:03;;;;;;;8.07;6.10;;;15.00;72.80;;;;;;4883310;29;20135;-84
2021/10/14 07:37:29;;;;;;;8.13;6.18;;;15.00;72.80;;;;;;4867697;29;20045;-83
2021/10/14 07:39:54;;;;;;;8.15;6.38;;;15.10;72.90;;;;;;4883099;29;20111;-82
2021/10/14 07:42:20;;;;;;;8.30;6.15;;;15.00;72.80;;;;;;4882833;29;20492;-81
2021/10/14 07:44:46;;;;;;;7.75;5.72;;;15.00;72.80;;;;;;4882586;29;20033;-81
2021/10/14 07:47:12;;;;;;;7.63;5.97;;;15.10;72.90;;;;;;4882799;29;20375;-80
2021/10/14 07:49:37;;;;;;;7.97;6.50;;;15.10;72.90;;;;;;4867273;29;20088;-82
2021/10/14 07:52:03;;;;;;;8.43;6.07;;;15.10;72.90;;;;;;4867781;29;20039;-83
2021/10/14 07:54:29;;;;;;;8.13;6.75;;;15.10;72.90;;;;;;4898143;29;20455;-82
2021/10/14 07:56:55;;;;;;;7.78;5.65;;;15.10;72.90;;;;;;4867712;29;20036;-83
2021/10/14 07:59:21;;;;;;;7.80;6.03;;;15.10;72.90;;;;;;4882858;29;20037;-83
2021/10/14 08:01:47;;;;;;;8.13;6.32;;;15.10;72.90;;;;;;4867343;29;20510;-83
2021/10/14 08:04:13;;;;;;;8.32;6.28;;;15.10;72.90;;;;;;4882642;29;20024;-83
2021/10/14 08:06:39;;;;;;;8.02;6.13;;;15.10;72.90;;;;;;4867250;29;20041;-83
2021/10/14 08:09:05;;;;;;;7.32;6.07;;;15.10;72.90;;;;;;4898399;29;20123;-82
2021/10/14 08:11:31;;;;;;;7.82;6.10;;;15.10;72.90;;;;;;4899752;29;20044;-82
2021/10/14 08:13:56;;;;;;;8.40;6.15;;;15.10;72.90;;;;;;4883820;29;20031;-83
2021/10/14 08:16:23;;;;;;;8.27;6.65;;;15.10;72.90;;;;;;4867438;29;20053;-83
2021/10/14 08:18:49;;;;;;;8.60;6.22;;;15.10;72.90;;;;;;4882796;29;20077;-83
2021/10/14 08:21:15;;;;;;;9.88;6.30;;;15.20;72.90;;;;;;4868027;29;20077;-83
2021/10/14 08:23:41;;;;;;;8.35;6.28;;;15.10;72.90;;;;;;4883500;29;20060;-84
2021/10/14 08:26:08;;;;;;;7.60;6.22;;;15.20;72.90;;;;;;4882859;29;20045;-83
2021/10/14 08:28:35;;;;;;;8.20;6.32;;;15.20;72.90;;;;;;4867657;29;20044;-83
2021/10/14 08:31:01;;;;;;;7.78;5.85;;;15.20;72.90;;;;;;4867606;29;20036;-83
2021/10/14 08:33:27;;;;;;;7.85;6.35;;;15.20;72.90;;;;;;4882648;29;20052;-84
2021/10/14 08:35:53;;;;;;;8.82;6.07;;;15.20;72.90;;;;;;4884803;29;20362;-84
2021/10/14 08:38:19;;;;;;;7.97;6.20;;;15.20;72.90;;;;;;4870657;29;20045;-84
2021/10/14 08:40:47;;;;;;;8.43;6.40;;;15.20;72.90;;;;;;4885476;29;20115;-81
2021/10/14 08:43:17;;;;;;;7.53;5.57;;;15.20;72.90;;;;;;4870404;29;20036;-84
2021/10/14 08:45:45;;;;;;;9.45;7.03;;;15.20;72.90;;;;;;4886536;29;20084;-86
2021/10/14 08:48:12;;;;;;;8.65;6.32;;;15.20;72.90;;;;;;4902303;29;20069;-88
2021/10/14 08:50:44;;;;;;;7.85;6.55;;;15.20;72.90;;;;;;4886649;29;20033;-87
2021/10/14 08:53:11;;;;;;;7.97;6.32;;;15.30;73.00;;;;;;4886355;29;20035;-86
2021/10/14 08:55:38;;;;;;;7.43;6.10;;;15.30;72.90;;;;;;4870378;29;20089;-85
2021/10/14 08:58:08;;;;;;;7.75;6.10;;;15.30;72.90;;;;;;4870994;29;20045;-90
2021/10/14 09:00:40;;;;;;;7.80;5.68;;;15.30;73.00;;;;;;4886240;29;20033;-85
2021/10/14 09:03:25;;;;;;;9.10;6.75;;;15.30;73.00;;;;;;4870207;29;20119;-86
2021/10/14 09:05:52;;;;;;;9.02;6.60;;;15.30;73.00;;;;;;4869970;29;20131;-85
2021/10/14 09:08:40;;;;;;;8.90;6.55;;;15.30;72.90;;;;;;4885976;29;20462;-81
2021/10/14 09:11:09;;;;;;;8.23;6.05;;;15.30;73.00;;;;;;4884078;29;20045;-81
2021/10/14 09:13:35;;;;;;;8.60;6.15;;;15.30;72.90;;;;;;4884758;29;20029;-82
2021/10/14 09:16:23;;;;;;;8.88;7.20;;;15.30;72.90;;;;;;4884620;29;20132;-83
2021/10/14 09:18:50;;;;;;;8.13;6.18;;;15.30;73.10;;;;;;4884757;29;20033;-79
2021/10/14 09:21:28;;;;;;;8.10;6.10;;;15.30;72.80;;;;;;4884895;29;20470;-84
2021/10/14 09:23:56;;;;;;;9.00;6.07;;;15.30;72.90;;;;;;4885568;29;20462;-83
2021/10/14 09:26:29;;;;;;;7.90;6.22;;;15.40;72.90;;;;;;4869868;29;20215;-83
2021/10/14 09:29:06;;;;;;;7.68;6.40;;;15.40;73.00;;;;;;4884863;29;20039;-83
2021/10/14 09:31:49;;;;;;;9.05;6.20;;;15.40;73.00;;;;;;4885060;29;20039;-82
2021/10/14 09:34:36;;;;;;;7.70;5.90;;;15.40;73.00;;;;;;4884853;29;20033;-83
2021/10/14 09:37:04;;;;;;;8.05;6.38;;;15.40;73.00;;;;;;4884839;29;20472;-83
2021/10/14 09:39:31;;;;;;;7.65;6.38;;;15.40;72.80;;;;;;4884328;29;20513;-83
2021/10/14 09:41:58;;;;;;;8.02;6.38;;;15.50;72.90;;;;;;4884699;29;20033;-84
2021/10/14 09:44:25;;;;;;;7.57;5.75;;;15.50;72.90;;;;;;4884613;29;20028;-88
2021/10/14 09:46:53;;;;;;;7.53;6.15;;;15.50;72.80;;;;;;4869412;29;20144;-82
2021/10/14 09:49:32;;;;;;;8.25;6.20;;;15.50;72.80;;;;;;4885229;29;20047;-84
2021/10/14 09:52:00;;;;;;;8.93;7.00;;;15.50;72.90;;;;;;4869376;29;20537;-84
2021/10/14 09:54:27;;;;;;;6.85;5.38;;;15.50;73.40;;;;;;4884842;29;20472;-86
2021/10/14 09:56:54;;;;;;;8.15;6.53;;;15.60;72.80;;;;;;4916745;29;20131;-85
2021/10/14 09:59:20;;;;;;;7.78;5.60;;;15.60;72.70;;;;;;4869018;29;20021;-86
2021/10/14 10:01:48;;;;;;;7.35;5.72;;;15.60;72.70;;;;;;4869935;29;20043;-87
2021/10/14 10:04:15;;;;;;;8.13;6.65;;;15.60;72.70;;;;;;4885378;29;20075;-86
2021/10/14 10:06:42;;;;;;;8.75;6.13;;;15.60;72.60;;;;;;4900534;29;20047;-85
2021/10/14 10:09:17;;;;;;;8.02;6.03;;;15.60;72.60;;;;;;4869476;29;20025;-84
2021/10/14 10:11:47;;;;;;;;;;;15.70;72.70;;;;;;4915639;29;20041;-82
2021/10/14 10:14:14;;;;;;;7.10;5.63;;;15.70;72.50;;;;;;4884051;29;19912;-81
2021/10/14 10:16:58;;;;;;;7.15;5.50;;;15.70;72.40;;;;;;4868688;29;20064;-82
2021/10/14 10:19:38;;;;;;;7.50;5.88;;;15.70;72.70;;;;;;4915219;29;20033;-81
2021/10/14 10:22:04;;;;;;;8.32;5.57;;;15.70;72.60;;;;;;4883671;29;20033;-80
2021/10/14 10:24:32;;;;;;;8.20;6.50;;;15.70;72.50;;;;;;4883304;29;20355;-80
2021/10/14 10:26:59;;;;;;;7.38;5.78;;;15.70;72.50;;;;;;4883796;29;20048;-80
2021/10/14 10:29:27;;;;;;;7.95;6.25;;;15.70;72.60;;;;;;4900896;29;20103;-81
2021/10/14 10:31:56;;;;;;;8.13;6.05;;;15.80;72.60;;;;;;4883461;29;20033;-81
2021/10/14 10:34:41;;;;;;;7.95;6.32;;;15.80;72.60;;;;;;4883539;29;20542;-81
2021/10/14 10:37:25;;;;;;;;;;;15.80;72.60;;;;;;4883581;29;20037;-81
2021/10/14 10:39:56;;;;;;;6.80;5.30;;;15.80;72.40;;;;;;4883529;29;20210;-81
2021/10/14 10:42:26;;;;;;;7.45;5.50;;;15.80;72.30;;;;;;4883529;29;20060;-81
2021/10/14 10:44:53;;;;;;;6.95;5.55;;;15.80;72.40;;;;;;4868014;29;20427;-82
2021/10/14 10:47:56;;;;;;;7.93;5.88;;;15.80;72.50;;;;;;4868127;29;20466;-82
2021/10/14 10:50:28;;;;;;;7.60;6.05;;;15.80;72.60;;;;;;4914940;29;20497;-82
2021/10/14 10:53:08;;;;;;;7.55;5.85;;;15.90;72.50;;;;;;4883217;29;20036;-84
2021/10/14 10:55:41;;;;;;;7.53;6.20;;;15.90;72.60;;;;;;4882938;29;20082;-79
2021/10/14 10:58:09;;;;;;;6.22;5.18;;;15.90;72.50;;;;;;4883767;29;20092;-90
2021/10/14 11:00:43;;;;;;;7.90;6.18;;;15.90;72.50;;;;;;4883390;29;20029;-85
2021/10/14 11:03:19;;;;;;;7.60;6.05;;;15.90;72.50;;;;;;4870095;29;20490;-83
2021/10/14 11:05:58;;;;;;;7.93;6.15;;;16.00;72.50;;;;;;4884112;29;20033;-86
2021/10/14 11:08:27;;;;;;;8.48;6.30;;;16.00;72.60;;;;;;4868908;29;20052;-85
2021/10/14 11:10:55;;;;;;;8.27;6.28;;;16.00;72.50;;;;;;4900185;29;20076;-84
2021/10/14 11:13:23;;;;;;;8.35;6.70;;;16.00;72.50;;;;;;4884063;29;20033;-85
2021/10/14 11:15:56;;;;;;;7.55;6.25;;;16.10;72.50;;;;;;4869401;29;20418;-86
2021/10/14 11:18:24;;;;;;;7.38;6.35;;;16.10;72.40;;;;;;4884667;29;20460;-85
2021/10/14 11:20:56;;;;;;;7.85;6.32;;;16.10;72.40;;;;;;4867882;29;20033;-85
2021/10/14 11:23:25;;;;;;;7.47;6.00;;;16.20;72.40;;;;;;4883855;29;20036;-85
2021/10/14 11:26:09;;;;;;;7.60;5.95;;;16.20;72.40;;;;;;4867883;29;20025;-85
2021/10/14 11:28:57;;;;;;;8.02;6.50;;;16.20;72.40;;;;;;4883583;29;20083;-85
2021/10/14 11:31:37;;;;;;;7.72;6.20;;;16.20;72.40;;;;;;4883734;29;20462;-85
2021/10/14 11:34:08;;;;;;;8.60;6.65;;;16.20;72.20;;;;;;4884030;29;20036;-85
2021/10/14 11:36:35;;;;;;;8.32;6.32;;;16.30;72.20;;;;;;4868631;29;20119;-85
2021/10/14 11:39:10;;;;;;;7.45;6.10;;;16.30;72.20;;;;;;4883647;29;20123;-86
2021/10/14 11:41:38;;;;;;;7.47;6.15;;;16.40;72.30;;;;;;4900563;29;20064;-85
2021/10/14 11:44:07;;;;;;;7.22;5.65;;;16.40;72.20;;;;;;4867535;29;20033;-85
2021/10/14 11:46:38;;;;;;;7.80;6.50;;;16.40;72.20;;;;;;4882549;29;20045;-88
2021/10/14 11:49:09;;;;;;;8.65;6.32;;;16.40;72.10;;;;;;4883621;29;20028;-89
2021/10/14 11:51:35;;;;;;;7.82;6.53;;;16.50;72.10;;;;;;4884065;29;20032;-85
2021/10/14 11:54:01;;;;;;;7.22;6.07;;;16.50;72.10;;;;;;4867757;29;20080;-85
2021/10/14 11:56:27;;;;;;;7.28;6.03;;;16.50;72.10;;;;;;4882635;29;20036;-85
2021/10/14 11:59:04;;;;;;;7.05;6.25;;;16.50;72.00;;;;;;4883038;29;20024;-84
2021/10/14 12:01:31;;;;;;;6.95;5.65;;;16.50;72.10;;;;;;4882883;29;20126;-86
2021/10/14 12:03:57;;;;;;;8.02;6.72;;;16.60;72.00;;;;;;4898676;29;20021;-85
2021/10/14 12:06:24;;;;;;;7.65;6.30;;;16.60;72.00;;;;;;4883227;29;20084;-86
2021/10/14 12:08:50;;;;;;;7.95;6.03;;;16.60;72.00;;;;;;4867971;29;20047;-87
2021/10/14 12:11:21;;;;;;;7.47;6.13;;;16.60;71.90;;;;;;4870968;29;20136;-87
2021/10/14 12:14:02;;;;;;;7.43;6.10;;;16.70;72.00;;;;;;4886403;29;20573;-87
2021/10/14 12:16:29;;;;;;;7.95;6.32;;;16.70;72.00;;;;;;4898919;29;20045;-86
2021/10/14 12:19:10;;;;;;;7.45;5.80;;;16.70;71.90;;;;;;4898830;29;20029;-87
2021/10/14 12:21:36;;;;;;;6.57;5.70;;;16.70;72.00;;;;;;4914417;29;20036;-86
2021/10/14 12:24:12;;;;;;;7.95;5.72;;;16.80;71.90;;;;;;4883412;29;20033;-86
2021/10/14 12:26:46;;;;;;;7.57;6.07;;;16.80;71.90;;;;;;4883103;29;20055;-87
2021/10/14 12:29:30;;;;;;;8.40;6.70;;;16.80;71.90;;;;;;4915762;29;20032;-86
2021/10/14 12:32:06;;;;;;;7.07;5.97;;;16.80;71.90;;;;;;4884116;29;20029;-86
2021/10/14 12:34:55;;;;;;;6.43;5.40;;;16.80;71.80;;;;;;4883487;29;20132;-86
2021/10/14 12:37:31;;;;;;;7.20;5.63;;;16.80;71.90;;;;;;4883647;29;20036;-86
2021/10/14 12:40:20;;;;;;;7.45;5.72;;;16.90;71.80;;;;;;4883787;29;20025;-87
2021/10/14 12:45:40;;;;;;;6.60;5.55;;;16.90;71.80;;;;;;4883232;29;20055;-86
2021/10/14 12:51:22;;;;;;;6.70;5.45;;;16.90;71.90;;;;;;4883464;29;20431;-86
2021/10/14 12:53:56;;;;;;;7.00;5.60;;;17.00;71.80;;;;;;4867760;29;20223;-86
2021/10/14 12:56:37;;;;;;;7.45;5.45;;;17.00;71.80;;;;;;4913988;29;20483;-85
2021/10/14 12:59:06;;;;;;;6.75;5.53;;;17.00;71.90;;;;;;4883098;29;20039;-86
2021/10/14 13:01:35;;;;;;;6.88;5.65;;;17.00;71.70;;;;;;4915160;29;20033;-85
2021/10/14 13:04:03;;;;;;;8.20;5.72;;;17.00;71.70;;;;;;4884388;29;20029;-85